Time;durP1;ratioP1;P1;durP2;ratioP2;P2;SDS_P1;SDS_P2;PMS_P1;PMS_P2;Temp;Humidity;BMP_temperature;BMP_pressure;BME280_temperature;BME280_humidity;BME280_pressure;Samples;Min_cycle;Max_cycle;Signal;HPM_P1;HPM_P2
2023/12/09 00:01:07;;;;;;;21.75;5.20;;;8.60;99.90;;;;;;4934803;28;88066;-79
2023/12/09 00:03:32;;;;;;;22.58;5.03;;;8.60;99.90;;;;;;4933598;28;88569;-77
2023/12/09 00:05:58;;;;;;;24.08;5.63;;;8.50;99.90;;;;;;4928743;28;90616;-79
2023/12/09 00:08:24;;;;;;;31.70;6.43;;;8.50;99.90;;;;;;4930651;28;89018;-77
2023/12/09 00:10:50;;;;;;;28.15;6.05;;;8.50;99.90;;;;;;4928381;28;88724;-78
2023/12/09 00:13:16;;;;;;;28.70;6.45;;;8.60;99.90;;;;;;4937528;28;87935;-77
2023/12/09 00:15:42;;;;;;;31.80;7.25;;;8.60;99.90;;;;;;4937215;28;88954;-79
2023/12/09 00:18:08;;;;;;;28.20;7.03;;;8.60;99.90;;;;;;4934310;28;89231;-79
2023/12/09 00:20:34;;;;;;;30.33;6.60;;;8.60;99.90;;;;;;4950673;28;91418;-77
2023/12/09 00:22:59;;;;;;;30.67;6.00;;;8.60;99.90;;;;;;4935847;28;87476;-79
2023/12/09 00:25:25;;;;;;;24.98;5.82;;;8.60;99.90;;;;;;4928755;28;89919;-77
2023/12/09 00:27:51;;;;;;;27.27;6.63;;;8.70;99.90;;;;;;4931572;28;91276;-79
2023/12/09 00:30:17;;;;;;;27.70;6.85;;;8.60;99.90;;;;;;4933190;28;92558;-77
2023/12/09 00:32:42;;;;;;;22.23;6.38;;;8.70;99.90;;;;;;4931598;28;87824;-76
2023/12/09 00:35:08;;;;;;;29.60;8.25;;;8.60;99.90;;;;;;4914578;28;90072;-79
2023/12/09 00:37:34;;;;;;;30.83;5.47;;;8.60;99.90;;;;;;4906900;28;91400;-78
2023/12/09 00:40:00;;;;;;;22.30;6.40;;;8.60;99.90;;;;;;4949057;28;90918;-77
2023/12/09 00:42:25;;;;;;;26.33;5.82;;;8.70;99.90;;;;;;4914632;28;88361;-77
2023/12/09 00:44:51;;;;;;;28.27;6.05;;;8.70;99.90;;;;;;4928957;28;89171;-78
2023/12/09 00:47:16;;;;;;;22.48;5.38;;;8.70;99.90;;;;;;4929561;28;90367;-76
2023/12/09 00:49:44;;;;;;;27.20;6.65;;;8.70;99.90;;;;;;4930771;28;88256;-78
2023/12/09 00:52:11;;;;;;;26.73;6.20;;;8.70;99.90;;;;;;4927553;28;89149;-78
2023/12/09 00:54:37;;;;;;;26.73;6.53;;;8.70;99.90;;;;;;4929956;28;88832;-77
2023/12/09 00:57:03;;;;;;;25.98;5.78;;;8.60;99.90;;;;;;4928533;28;91967;-78
2023/12/09 00:59:29;;;;;;;32.45;6.25;;;8.60;99.90;;;;;;4931489;28;89730;-78
2023/12/09 01:01:55;;;;;;;25.35;7.38;;;8.60;99.90;;;;;;4930560;28;89597;-79
2023/12/09 01:04:21;;;;;;;28.23;5.65;;;8.60;99.90;;;;;;4943468;28;91453;-77
2023/12/09 01:06:46;;;;;;;27.95;6.07;;;8.60;99.90;;;;;;4930246;28;89393;-79
2023/12/09 01:09:13;;;;;;;33.05;7.13;;;8.60;99.90;;;;;;4931448;28;91021;-77
2023/12/09 01:11:39;;;;;;;23.20;5.65;;;8.50;99.90;;;;;;4931547;28;87780;-78
2023/12/09 01:14:05;;;;;;;30.88;6.72;;;8.50;99.90;;;;;;4907771;28;88922;-78
2023/12/09 01:16:31;;;;;;;26.00;5.78;;;8.50;99.90;;;;;;4940341;28;92761;-78
2023/12/09 01:18:56;;;;;;;43.17;8.05;;;8.50;99.90;;;;;;4930962;28;93814;-78
2023/12/09 01:21:22;;;;;;;24.40;5.85;;;8.50;99.90;;;;;;4931655;28;87630;-78
2023/12/09 01:23:48;;;;;;;31.75;6.13;;;8.50;99.90;;;;;;4928973;28;88089;-77
2023/12/09 01:26:14;;;;;;;24.80;6.25;;;8.50;99.90;;;;;;4914050;28;90059;-78
2023/12/09 01:28:39;;;;;;;24.52;6.07;;;8.50;99.90;;;;;;4927742;28;91188;-78
2023/12/09 01:31:06;;;;;;;27.23;6.97;;;8.50;99.90;;;;;;4925935;28;88130;-79
2023/12/09 01:33:32;;;;;;;31.98;6.85;;;8.40;99.90;;;;;;4931242;28;88890;-79
2023/12/09 01:35:58;;;;;;;26.67;6.28;;;8.30;99.90;;;;;;4931934;28;88265;-78
2023/12/09 01:38:23;;;;;;;39.05;6.15;;;8.30;99.90;;;;;;4912762;28;88620;-80
2023/12/09 01:40:55;;;;;;;30.27;6.40;;;8.30;99.90;;;;;;4930474;28;88607;-77
2023/12/09 01:43:23;;;;;;;28.27;7.40;;;8.30;99.90;;;;;;4912799;28;88941;-79
2023/12/09 01:45:52;;;;;;;22.67;7.10;;;8.20;99.90;;;;;;4929175;28;91722;-77
2023/12/09 01:48:19;;;;;;;32.08;6.30;;;8.20;99.90;;;;;;4940955;28;90512;-77
2023/12/09 01:50:46;;;;;;;35.95;6.72;;;8.20;99.90;;;;;;4928535;28;88232;-79
2023/12/09 01:53:12;;;;;;;26.15;6.93;;;8.10;99.90;;;;;;4905532;28;88524;-80
2023/12/09 01:55:40;;;;;;;28.85;6.85;;;8.10;99.90;;;;;;4924079;28;90302;-77
2023/12/09 01:58:06;;;;;;;27.05;6.80;;;8.10;99.90;;;;;;4947071;28;89678;-79
2023/12/09 02:00:32;;;;;;;28.25;6.25;;;8.10;99.90;;;;;;4932628;28;87879;-78
2023/12/09 02:02:58;;;;;;;20.85;6.28;;;8.10;99.90;;;;;;4908215;28;88851;-78
2023/12/09 02:05:25;;;;;;;25.70;5.93;;;8.10;99.90;;;;;;4942163;28;92262;-78
2023/12/09 02:07:51;;;;;;;31.00;6.68;;;8.00;99.90;;;;;;4910978;28;92137;-78
2023/12/09 02:10:18;;;;;;;34.67;7.68;;;8.00;99.90;;;;;;4941579;28;88095;-78
2023/12/09 02:12:54;;;;;;;29.23;6.40;;;8.00;99.90;;;;;;4945637;28;90772;-78
2023/12/09 02:15:33;;;;;;;28.27;7.20;;;8.00;99.90;;;;;;4928756;28;89836;-80
2023/12/09 02:18:03;;;;;;;32.70;9.40;;;8.00;99.90;;;;;;4924963;28;95711;-78
2023/12/09 02:20:29;;;;;;;30.00;7.03;;;8.10;99.90;;;;;;4926655;28;88379;-78
2023/12/09 02:23:13;;;;;;;33.90;6.88;;;8.00;99.90;;;;;;4934095;28;89545;-76
2023/12/09 02:25:40;;;;;;;28.23;6.60;;;7.90;99.90;;;;;;4927410;28;91590;-79
2023/12/09 02:28:13;;;;;;;38.72;7.88;;;7.90;99.90;;;;;;4949748;28;89913;-79
2023/12/09 02:31:03;;;;;;;28.15;6.20;;;7.80;99.90;;;;;;4927771;28;89756;-80
2023/12/09 02:33:30;;;;;;;28.92;6.80;;;7.80;99.90;;;;;;4931296;28;88562;-78
2023/12/09 02:35:59;;;;;;;30.75;7.72;;;7.70;99.90;;;;;;4947451;28;89991;-78
2023/12/09 02:38:27;;;;;;;28.30;6.65;;;7.70;99.90;;;;;;4935542;28;88068;-79
2023/12/09 02:40:53;;;;;;;22.20;6.57;;;7.70;99.90;;;;;;4932075;28;88301;-80
2023/12/09 02:43:19;;;;;;;32.30;6.38;;;7.70;99.90;;;;;;4943079;28;88064;-79
2023/12/09 02:45:45;;;;;;;30.50;6.80;;;7.60;99.90;;;;;;4936524;28;90201;-78
2023/12/09 02:48:11;;;;;;;23.92;5.68;;;7.60;99.90;;;;;;4916989;28;89745;-79
2023/12/09 02:50:37;;;;;;;24.42;6.50;;;7.60;99.90;;;;;;4947267;28;87786;-80
2023/12/09 02:53:03;;;;;;;26.48;6.85;;;7.60;99.90;;;;;;4932839;28;90049;-78
2023/12/09 02:55:29;;;;;;;34.92;6.50;;;7.60;99.90;;;;;;4934392;28;89214;-78
2023/12/09 02:57:54;;;;;;;25.77;7.07;;;7.60;99.90;;;;;;4931733;28;93003;-79
2023/12/09 03:00:20;;;;;;;22.92;5.57;;;7.60;99.90;;;;;;4950265;28;87817;-79
2023/12/09 03:02:46;;;;;;;26.15;5.32;;;7.60;99.90;;;;;;4949410;28;88564;-77
2023/12/09 03:05:12;;;;;;;22.20;6.75;;;7.50;99.90;;;;;;4932997;28;91699;-79
2023/12/09 03:07:37;;;;;;;29.35;7.65;;;7.50;99.90;;;;;;4932236;28;87865;-79
2023/12/09 03:10:03;;;;;;;26.13;5.68;;;7.50;99.90;;;;;;4949792;28;87703;-78
2023/12/09 03:12:29;;;;;;;27.08;5.60;;;7.60;99.90;;;;;;4935544;28;89635;-78
2023/12/09 03:14:54;;;;;;;29.25;5.78;;;7.60;99.90;;;;;;4940194;28;88715;-81
2023/12/09 03:17:21;;;;;;;19.25;4.90;;;7.60;99.90;;;;;;4939902;28;90534;-78
2023/12/09 03:19:47;;;;;;;25.48;5.03;;;7.60;99.90;;;;;;4949004;28;88888;-79
2023/12/09 03:22:12;;;;;;;25.85;6.53;;;7.60;99.90;;;;;;4937644;28;88607;-79
2023/12/09 03:24:41;;;;;;;30.17;5.05;;;7.50;99.90;;;;;;4911049;28;89982;-79
2023/12/09 03:27:06;;;;;;;35.20;5.93;;;7.50;99.90;;;;;;4938462;28;90568;-79
2023/12/09 03:29:32;;;;;;;17.67;4.60;;;7.50;99.90;;;;;;4937240;28;87196;-78
2023/12/09 03:31:58;;;;;;;28.85;5.60;;;7.50;99.90;;;;;;4930398;28;88442;-79
2023/12/09 03:34:24;;;;;;;22.08;5.30;;;7.60;99.90;;;;;;4930372;28;90217;-78
2023/12/09 03:36:49;;;;;;;25.58;5.55;;;7.60;99.90;;;;;;4931391;28;89717;-79
2023/12/09 03:39:15;;;;;;;24.50;4.80;;;7.60;99.90;;;;;;4950489;28;88062;-78
2023/12/09 03:41:41;;;;;;;25.80;5.65;;;7.60;99.90;;;;;;4935532;28;88632;-80
2023/12/09 03:44:07;;;;;;;23.83;5.38;;;7.60;99.90;;;;;;4935038;28;90672;-78
2023/12/09 03:46:33;;;;;;;25.95;4.70;;;7.60;99.90;;;;;;4931434;28;91259;-79
2023/12/09 03:48:58;;;;;;;24.13;4.57;;;7.60;99.90;;;;;;4934197;28;87810;-78
2023/12/09 03:51:24;;;;;;;25.38;5.00;;;7.60;99.90;;;;;;4953201;28;91553;-79
2023/12/09 03:53:50;;;;;;;32.75;4.97;;;7.60;99.90;;;;;;4938143;28;90643;-79
2023/12/09 03:56:20;;;;;;;32.88;5.30;;;7.50;99.90;;;;;;4936201;28;89608;-78
2023/12/09 03:58:46;;;;;;;25.58;5.05;;;7.50;99.90;;;;;;4935281;28;88355;-77
2023/12/09 04:01:12;;;;;;;19.08;4.57;;;7.50;99.90;;;;;;4936975;28;87157;-78
2023/12/09 04:03:37;;;;;;;23.23;4.82;;;7.50;99.90;;;;;;4935342;28;89863;-79
2023/12/09 04:06:05;;;;;;;27.17;5.45;;;7.50;99.90;;;;;;4933505;28;90065;-78
2023/12/09 04:08:31;;;;;;;19.75;3.85;;;7.50;99.90;;;;;;4934166;28;89324;-78
2023/12/09 04:10:57;;;;;;;29.50;6.75;;;7.50;99.90;;;;;;4934488;28;87658;-79
2023/12/09 04:13:22;;;;;;;27.35;5.32;;;7.50;99.90;;;;;;4933812;28;89044;-78
2023/12/09 04:15:48;;;;;;;25.13;5.18;;;7.50;99.90;;;;;;4948482;28;89433;-78
2023/12/09 04:18:14;;;;;;;25.58;5.10;;;7.50;99.90;;;;;;4948925;28;87400;-78
2023/12/09 04:20:40;;;;;;;22.17;5.05;;;7.50;99.90;;;;;;4935650;28;88380;-78
2023/12/09 04:23:06;;;;;;;18.35;4.40;;;7.60;99.90;;;;;;4937349;28;90709;-79
2023/12/09 04:25:32;;;;;;;29.45;4.88;;;7.60;99.90;;;;;;4955970;28;90074;-78
2023/12/09 04:27:57;;;;;;;23.15;6.10;;;7.60;99.90;;;;;;4937470;28;88303;-79
2023/12/09 04:30:23;;;;;;;23.80;6.13;;;7.60;99.90;;;;;;4936750;28;88946;-79
2023/12/09 04:32:49;;;;;;;23.38;4.82;;;7.60;99.90;;;;;;4930702;28;89988;-78
2023/12/09 04:35:15;;;;;;;22.10;4.63;;;7.60;99.90;;;;;;4955349;28;91109;-79
2023/12/09 04:37:41;;;;;;;25.40;4.35;;;7.60;99.90;;;;;;4935972;28;88009;-78
2023/12/09 04:40:10;;;;;;;24.98;4.80;;;7.60;99.90;;;;;;4940733;28;91236;-79
2023/12/09 04:42:37;;;;;;;19.88;4.85;;;7.60;99.90;;;;;;4957280;28;89080;-79
2023/12/09 04:45:03;;;;;;;23.55;4.53;;;7.60;99.90;;;;;;4942714;28;89934;-78
2023/12/09 04:47:29;;;;;;;26.55;4.00;;;7.70;99.90;;;;;;4919847;28;87869;-78
2023/12/09 04:49:54;;;;;;;19.60;4.78;;;7.70;99.90;;;;;;4942800;28;87121;-78
2023/12/09 04:52:20;;;;;;;20.85;4.43;;;7.70;99.90;;;;;;4944539;28;88719;-79
2023/12/09 04:54:46;;;;;;;16.58;3.70;;;7.70;99.90;;;;;;4955134;28;89569;-79
2023/12/09 04:57:12;;;;;;;20.02;4.45;;;7.70;99.90;;;;;;4959045;28;88522;-79
2023/12/09 04:59:37;;;;;;;27.02;5.63;;;7.80;99.90;;;;;;4953799;28;90280;-78
2023/12/09 05:02:04;;;;;;;23.60;4.15;;;7.80;99.90;;;;;;4946631;28;91756;-78
2023/12/09 05:04:30;;;;;;;32.53;5.00;;;7.80;99.90;;;;;;4940755;28;88118;-78
2023/12/09 05:06:56;;;;;;;23.67;4.53;;;7.80;99.90;;;;;;4940313;28;87962;-79
2023/12/09 05:09:24;;;;;;;17.60;4.30;;;7.90;99.90;;;;;;4926651;28;88938;-78
2023/12/09 05:11:50;;;;;;;20.17;3.80;;;7.90;99.90;;;;;;4943059;28;87826;-79
2023/12/09 05:14:16;;;;;;;24.77;3.83;;;7.90;99.90;;;;;;4930080;28;89207;-78
2023/12/09 05:16:42;;;;;;;21.70;4.25;;;7.90;99.90;;;;;;4942657;28;87864;-77
2023/12/09 05:19:07;;;;;;;26.90;4.13;;;7.90;99.90;;;;;;4913557;28;89054;-78
2023/12/09 05:21:33;;;;;;;17.50;4.32;;;7.90;99.90;;;;;;4912860;28;92497;-78
2023/12/09 05:23:59;;;;;;;20.42;3.78;;;7.90;99.90;;;;;;4935206;28;90760;-78
2023/12/09 05:26:27;;;;;;;26.45;4.15;;;7.90;99.90;;;;;;4931436;28;88061;-78
2023/12/09 05:28:54;;;;;;;31.13;5.05;;;7.90;99.90;;;;;;4918961;28;89045;-79
2023/12/09 05:31:20;;;;;;;22.63;4.22;;;7.90;99.90;;;;;;4935412;28;90026;-79
2023/12/09 05:33:46;;;;;;;21.25;4.95;;;8.00;99.90;;;;;;4921186;28;90857;-79
2023/12/09 05:36:14;;;;;;;31.42;4.60;;;8.00;99.90;;;;;;4939535;28;87314;-78
2023/12/09 05:38:43;;;;;;;24.27;4.45;;;8.10;99.90;;;;;;4937548;28;90509;-80
2023/12/09 05:41:09;;;;;;;26.92;4.32;;;8.10;99.90;;;;;;4937257;28;88209;-78
2023/12/09 05:43:39;;;;;;;24.13;4.50;;;8.10;99.90;;;;;;4938033;28;88565;-78
2023/12/09 05:46:05;;;;;;;21.67;3.67;;;8.10;99.90;;;;;;4937381;28;88878;-78
2023/12/09 05:48:34;;;;;;;21.27;3.65;;;8.10;99.90;;;;;;4935013;28;92576;-79
2023/12/09 05:51:00;;;;;;;21.40;4.03;;;8.10;99.90;;;;;;4940109;28;90009;-79
2023/12/09 05:53:26;;;;;;;30.08;3.72;;;8.20;99.90;;;;;;4961372;28;89695;-78
2023/12/09 05:55:52;;;;;;;19.52;3.67;;;8.30;99.90;;;;;;4946438;28;87888;-78
2023/12/09 05:58:18;;;;;;;24.27;4.18;;;8.30;99.90;;;;;;4921049;28;88941;-78
2023/12/09 06:00:44;;;;;;;21.35;3.47;;;8.30;99.90;;;;;;4923238;28;91038;-77
2023/12/09 06:03:10;;;;;;;19.08;3.50;;;8.40;99.90;;;;;;4942100;28;88482;-79
2023/12/09 06:05:35;;;;;;;21.27;4.85;;;8.40;99.90;;;;;;4948507;28;87613;-79
2023/12/09 06:08:01;;;;;;;20.23;4.38;;;8.40;99.90;;;;;;4947639;28;89133;-78
2023/12/09 06:10:27;;;;;;;17.48;3.20;;;8.40;99.90;;;;;;4955620;28;91520;-78
2023/12/09 06:12:53;;;;;;;17.23;4.03;;;8.40;99.90;;;;;;4962525;28;90146;-79
2023/12/09 06:15:18;;;;;;;18.67;3.25;;;8.50;99.90;;;;;;4942195;28;87683;-80
2023/12/09 06:17:44;;;;;;;19.35;3.17;;;8.50;99.90;;;;;;4942773;28;88238;-80
2023/12/09 06:20:10;;;;;;;26.23;4.28;;;8.60;99.90;;;;;;4948969;28;87905;-79
2023/12/09 06:22:36;;;;;;;17.02;3.38;;;8.60;99.90;;;;;;4948821;28;87939;-78
2023/12/09 06:25:02;;;;;;;19.08;3.28;;;8.50;99.90;;;;;;4963710;28;93251;-79
2023/12/09 06:27:35;;;;;;;17.73;4.15;;;8.60;99.90;;;;;;4945740;28;89056;-79
2023/12/09 06:30:01;;;;;;;17.40;3.10;;;8.60;99.90;;;;;;4945557;28;88387;-79
2023/12/09 06:32:27;;;;;;;21.45;3.30;;;8.60;99.90;;;;;;4956712;28;88736;-79
2023/12/09 06:34:52;;;;;;;18.42;3.53;;;8.70;99.90;;;;;;4931833;28;88924;-79
2023/12/09 06:37:18;;;;;;;12.27;3.05;;;8.70;99.90;;;;;;4938940;28;88733;-79
2023/12/09 06:39:48;;;;;;;18.38;4.40;;;8.70;99.90;;;;;;4940848;28;89151;-79
2023/12/09 06:42:15;;;;;;;21.05;3.97;;;8.80;99.90;;;;;;4942647;28;88499;-79
2023/12/09 06:44:41;;;;;;;14.27;3.00;;;8.80;99.90;;;;;;4947351;28;87671;-79
2023/12/09 06:47:08;;;;;;;21.33;3.15;;;8.80;99.90;;;;;;4953249;28;87462;-78
2023/12/09 06:49:51;;;;;;;13.80;3.00;;;8.90;99.90;;;;;;4949202;28;90022;-79
2023/12/09 06:52:17;;;;;;;13.65;2.90;;;8.90;99.90;;;;;;4959613;28;93157;-80
2023/12/09 06:54:43;;;;;;;16.90;3.03;;;8.70;99.90;;;;;;4956936;28;87968;-79
2023/12/09 06:57:09;;;;;;;18.60;3.20;;;8.50;99.90;;;;;;4941755;28;89765;-78
2023/12/09 06:59:34;;;;;;;22.85;2.70;;;8.30;99.90;;;;;;4946064;28;89588;-79
2023/12/09 07:02:02;;;;;;;17.02;3.25;;;8.20;99.90;;;;;;4938613;28;89775;-80
2023/12/09 07:04:28;;;;;;;17.42;3.25;;;8.10;99.90;;;;;;4929326;28;87782;-79
2023/12/09 07:06:59;;;;;;;10.10;2.50;;;8.00;99.90;;;;;;4936702;28;87948;-80
2023/12/09 07:09:25;;;;;;;14.00;2.67;;;7.90;99.90;;;;;;4942592;28;90513;-80
2023/12/09 07:11:51;;;;;;;16.50;3.58;;;7.90;99.90;;;;;;4946364;28;89904;-78
2023/12/09 07:14:19;;;;;;;12.55;2.65;;;7.90;99.90;;;;;;4930047;28;88086;-80
2023/12/09 07:16:44;;;;;;;14.45;3.40;;;7.90;99.90;;;;;;4950156;28;87422;-79
2023/12/09 07:19:10;;;;;;;15.00;2.83;;;7.90;99.90;;;;;;4943502;28;89079;-79
2023/12/09 07:21:36;;;;;;;14.65;3.10;;;7.90;99.90;;;;;;4944329;28;88436;-79
2023/12/09 07:24:01;;;;;;;12.48;2.83;;;7.80;99.90;;;;;;4945047;28;88331;-79
2023/12/09 07:26:28;;;;;;;16.52;2.58;;;7.80;99.90;;;;;;4939605;28;87242;-79
2023/12/09 07:28:54;;;;;;;13.50;2.53;;;7.90;99.90;;;;;;4940274;28;90775;-79
2023/12/09 07:31:20;;;;;;;8.93;1.98;;;7.90;99.90;;;;;;4942218;28;88247;-79
2023/12/09 07:33:45;;;;;;;13.00;2.30;;;7.90;99.90;;;;;;4944811;28;87329;-79
2023/12/09 07:36:11;;;;;;;14.40;2.33;;;7.90;99.90;;;;;;4942845;28;88028;-78
2023/12/09 07:38:37;;;;;;;13.63;2.58;;;7.90;99.90;;;;;;4942408;28;89708;-79
2023/12/09 07:41:03;;;;;;;17.17;2.78;;;7.90;99.90;;;;;;4956738;28;91614;-78
2023/12/09 07:43:31;;;;;;;10.90;2.88;;;7.90;99.90;;;;;;4941307;28;87986;-79
2023/12/09 07:46:04;;;;;;;11.07;2.50;;;7.90;99.90;;;;;;4954973;28;88156;-78
2023/12/09 07:48:29;;;;;;;14.45;2.10;;;7.90;99.90;;;;;;4943513;28;91122;-80
2023/12/09 07:51:06;;;;;;;11.82;1.70;;;7.90;99.90;;;;;;4945043;28;89088;-78
2023/12/09 07:53:32;;;;;;;13.73;1.90;;;7.90;99.90;;;;;;4965862;28;86904;-78
2023/12/09 07:56:33;;;;;;;15.32;2.25;;;7.90;99.90;;;;;;4938623;28;89995;-82
2023/12/09 07:58:59;;;;;;;12.60;2.25;;;7.90;99.90;;;;;;4930359;28;87932;-82
2023/12/09 08:01:26;;;;;;;12.02;1.85;;;7.90;99.90;;;;;;4953901;28;90484;-82
2023/12/09 08:03:52;;;;;;;23.83;3.70;;;7.90;99.90;;;;;;4981683;28;87732;-82
2023/12/09 08:06:18;;;;;;;10.70;2.33;;;8.00;99.90;;;;;;4953420;28;87684;-81
2023/12/09 08:08:44;;;;;;;13.68;1.90;;;8.00;99.90;;;;;;4947478;28;88824;-81
2023/12/09 08:11:10;;;;;;;14.05;2.00;;;8.00;99.90;;;;;;4949510;28;87696;-82
2023/12/09 08:13:36;;;;;;;21.88;2.38;;;8.00;99.90;;;;;;4940872;28;88621;-81
2023/12/09 08:16:01;;;;;;;14.63;2.38;;;8.10;99.90;;;;;;4934449;28;87868;-80
2023/12/09 08:18:27;;;;;;;8.95;1.80;;;8.10;99.90;;;;;;4950228;28;87726;-81
2023/12/09 08:20:53;;;;;;;10.25;2.42;;;8.10;99.90;;;;;;4957077;28;90025;-81
2023/12/09 08:23:19;;;;;;;8.52;2.28;;;8.10;99.90;;;;;;4950996;28;87197;-81
2023/12/09 08:25:44;;;;;;;15.38;1.60;;;8.10;99.90;;;;;;4935008;28;88550;-82
2023/12/09 08:28:17;;;;;;;16.10;2.22;;;8.20;99.90;;;;;;4965116;28;91398;-82
2023/12/09 08:30:46;;;;;;;11.02;2.03;;;8.20;99.90;;;;;;4971598;28;90723;-82
2023/12/09 08:33:21;;;;;;;11.57;2.10;;;8.20;99.90;;;;;;4968450;28;87163;-82
2023/12/09 08:35:47;;;;;;;13.38;1.95;;;8.30;99.90;;;;;;4964813;28;95242;-83
2023/12/09 08:38:13;;;;;;;8.98;1.58;;;8.30;99.90;;;;;;4957882;28;88202;-81
2023/12/09 08:40:38;;;;;;;14.57;3.38;;;8.30;99.90;;;;;;4964739;28;90743;-83
2023/12/09 08:43:04;;;;;;;18.77;2.33;;;8.30;99.90;;;;;;4954897;28;86967;-82
2023/12/09 08:45:31;;;;;;;6.13;1.50;;;8.30;99.90;;;;;;4987672;28;89405;-82
2023/12/09 08:48:26;;;;;;;13.38;2.05;;;8.30;99.90;;;;;;4935575;28;91545;-82
2023/12/09 08:54:16;;;;;;;17.60;1.88;;;8.40;99.90;;;;;;4961298;28;86997;-83
2023/12/09 08:56:42;;;;;;;18.30;2.17;;;8.40;99.90;;;;;;4971177;28;88491;-83
2023/12/09 11:03:23;;;;;;;1.77;0.52;;;9.00;99.90;;;;;;5166734;22;89009;-83
2023/12/09 11:05:51;;;;;;;2.95;0.47;;;8.90;99.90;;;;;;4976090;28;86947;-82
2023/12/09 11:09:10;;;;;;;1.48;0.30;;;8.90;99.90;;;;;;4986112;28;87826;-84
2023/12/09 11:11:36;;;;;;;2.97;0.40;;;8.90;99.90;;;;;;5429277;22;89016;-84
2023/12/09 11:14:07;;;;;;;2.33;0.40;;;8.90;99.90;;;;;;4938505;28;87530;-82
2023/12/09 11:21:45;;;;;;;4.15;0.40;;;8.80;99.90;;;;;;5006333;22;87557;-80
2023/12/09 11:26:47;;;;;;;3.60;0.50;;;8.70;99.90;;;;;;5218216;22;93137;-74
2023/12/09 11:29:17;;;;;;;3.03;0.35;;;8.70;99.90;;;;;;4939402;28;92369;-73
2023/12/09 11:31:49;;;;;;;3.75;0.90;;;8.70;99.90;;;;;;4939595;28;87638;-74
2023/12/09 11:34:17;;;;;;;2.60;0.50;;;8.70;99.90;;;;;;4932464;28;90360;-74
2023/12/09 11:36:44;;;;;;;2.60;0.43;;;8.70;99.90;;;;;;4934457;28;91790;-73
2023/12/09 11:39:22;;;;;;;1.20;0.22;;;8.60;99.90;;;;;;4919999;28;91225;-73
2023/12/09 11:41:49;;;;;;;1.42;0.20;;;8.60;99.90;;;;;;4934001;28;89448;-74
2023/12/09 11:44:15;;;;;;;1.95;0.47;;;8.60;99.90;;;;;;4940630;28;87530;-72
2023/12/09 11:46:42;;;;;;;2.00;0.35;;;8.60;99.90;;;;;;4933393;28;89112;-73
2023/12/09 11:49:08;;;;;;;2.97;0.60;;;8.60;99.90;;;;;;4929398;28;91220;-73
2023/12/09 11:51:35;;;;;;;0.73;0.32;;;8.60;99.90;;;;;;4933487;28;88822;-75
2023/12/09 11:54:03;;;;;;;4.53;0.40;;;8.60;99.90;;;;;;4949710;28;88509;-73
2023/12/09 11:56:29;;;;;;;5.60;0.55;;;8.60;99.90;;;;;;4948630;28;90127;-73
2023/12/09 11:58:55;;;;;;;2.42;0.50;;;8.60;99.90;;;;;;4941609;28;91057;-73
2023/12/09 12:01:21;;;;;;;3.53;0.55;;;8.60;99.90;;;;;;4948885;28;88332;-73
2023/12/09 12:03:48;;;;;;;3.30;0.50;;;8.60;99.90;;;;;;4948861;28;87847;-73
2023/12/09 12:06:18;;;;;;;3.45;0.70;;;8.60;99.90;;;;;;4947688;28;90980;-73
2023/12/09 12:08:46;;;;;;;2.33;0.57;;;8.60;99.90;;;;;;4947273;28;89116;-73
2023/12/09 12:11:13;;;;;;;1.80;0.50;;;8.60;99.90;;;;;;4941781;28;87492;-73
2023/12/09 12:13:40;;;;;;;1.13;0.40;;;8.60;99.90;;;;;;4954654;28;90067;-73
2023/12/09 12:16:06;;;;;;;1.65;0.40;;;8.60;99.90;;;;;;4940175;28;92203;-74
2023/12/09 12:18:33;;;;;;;1.98;0.38;;;8.50;99.90;;;;;;4946129;28;92279;-73
2023/12/09 12:20:59;;;;;;;1.77;0.45;;;8.60;99.90;;;;;;4938460;28;88065;-73
2023/12/09 12:23:26;;;;;;;1.95;0.40;;;8.50;99.90;;;;;;4948122;28;87931;-74
2023/12/09 12:25:58;;;;;;;4.45;0.70;;;8.60;99.90;;;;;;4940898;28;90668;-73
2023/12/09 12:28:24;;;;;;;2.92;0.60;;;8.60;99.90;;;;;;4947855;28;88431;-74
2023/12/09 12:31:01;;;;;;;4.88;0.52;;;8.60;99.90;;;;;;4955393;28;88545;-73
2023/12/09 12:33:30;;;;;;;2.53;0.47;;;8.60;99.90;;;;;;4938772;28;89585;-73
2023/12/09 12:35:57;;;;;;;3.28;0.85;;;8.60;99.90;;;;;;4949469;28;88085;-73
2023/12/09 12:38:24;;;;;;;0.73;0.30;;;8.60;99.90;;;;;;4940166;28;92100;-73
2023/12/09 12:40:54;;;;;;;1.70;0.30;;;8.60;99.90;;;;;;4937888;28;88997;-73
2023/12/09 12:43:20;;;;;;;2.05;0.30;;;8.60;99.90;;;;;;4937497;28;90466;-73
2023/12/09 12:45:48;;;;;;;1.77;0.30;;;8.60;99.90;;;;;;4950034;28;91939;-73
2023/12/09 12:48:14;;;;;;;2.15;0.35;;;8.60;99.90;;;;;;4950878;28;90697;-74
2023/12/09 12:50:40;;;;;;;1.00;0.40;;;8.60;99.90;;;;;;4967951;28;88161;-73
2023/12/09 12:53:06;;;;;;;1.00;0.30;;;8.60;99.90;;;;;;4950554;28;90778;-72
2023/12/09 12:55:32;;;;;;;0.90;0.20;;;8.50;99.90;;;;;;4950390;28;91830;-72
2023/12/09 12:57:57;;;;;;;1.77;0.25;;;8.50;99.90;;;;;;4950620;28;91318;-73
2023/12/09 13:00:23;;;;;;;1.85;0.30;;;8.50;99.90;;;;;;4949271;28;87560;-73
2023/12/09 13:02:49;;;;;;;2.15;0.30;;;8.40;99.90;;;;;;4945257;28;89158;-73
2023/12/09 13:05:15;;;;;;;1.98;0.30;;;8.40;99.90;;;;;;4965456;28;89567;-73
2023/12/09 13:07:43;;;;;;;0.38;0.13;;;8.30;99.90;;;;;;4949847;28;92062;-74
2023/12/09 13:10:18;;;;;;;1.88;0.40;;;8.30;99.90;;;;;;4950208;28;87759;-74
2023/12/09 13:12:44;;;;;;;0.45;0.20;;;8.20;99.90;;;;;;4950661;28;90327;-74
2023/12/09 13:15:11;;;;;;;0.95;0.20;;;8.20;99.90;;;;;;4967906;28;88650;-73
2023/12/09 13:17:38;;;;;;;0.77;0.20;;;8.20;99.90;;;;;;4963257;28;87614;-74
2023/12/09 13:20:06;;;;;;;0.60;0.22;;;8.20;99.90;;;;;;4947649;28;88025;-75
2023/12/09 13:22:32;;;;;;;1.92;0.30;;;8.10;99.90;;;;;;4966364;28;87228;-75
2023/12/09 13:24:58;;;;;;;1.17;0.22;;;8.10;99.90;;;;;;4948573;28;91117;-74
2023/12/09 13:27:24;;;;;;;0.95;0.30;;;8.10;99.90;;;;;;4948625;28;89685;-73
2023/12/09 13:29:50;;;;;;;2.75;0.20;;;8.10;99.90;;;;;;4948549;28;88072;-73
2023/12/09 13:32:16;;;;;;;1.15;0.20;;;8.00;99.90;;;;;;4948937;28;89256;-74
2023/12/09 13:34:42;;;;;;;0.40;0.20;;;8.00;99.90;;;;;;4967137;28;88703;-72
2023/12/09 13:37:08;;;;;;;0.98;0.10;;;8.00;99.90;;;;;;4967865;28;87562;-74
2023/12/09 13:39:34;;;;;;;1.58;0.30;;;7.90;99.90;;;;;;4950333;28;87479;-73
2023/12/09 13:42:00;;;;;;;1.23;0.30;;;7.90;99.90;;;;;;4948829;28;90130;-73
2023/12/09 13:44:26;;;;;;;1.75;0.22;;;7.90;99.90;;;;;;4948785;28;92424;-73
2023/12/09 13:46:52;;;;;;;1.23;0.20;;;7.90;99.90;;;;;;4949058;28;91939;-73
2023/12/09 13:49:17;;;;;;;1.95;0.20;;;7.90;99.90;;;;;;4967738;28;87528;-73
2023/12/09 13:51:43;;;;;;;0.20;0.20;;;7.90;99.90;;;;;;4950105;28;89919;-73
2023/12/09 13:54:09;;;;;;;2.95;0.20;;;7.90;99.90;;;;;;4966272;28;89573;-72
2023/12/09 13:56:35;;;;;;;1.52;0.20;;;7.80;99.90;;;;;;4948784;28;92732;-74
2023/12/09 13:59:02;;;;;;;1.05;0.30;;;7.80;99.90;;;;;;4949055;28;87641;-73
2023/12/09 14:01:28;;;;;;;1.08;0.20;;;7.80;99.90;;;;;;4948381;28;90784;-73
2023/12/09 14:03:54;;;;;;;0.43;0.15;;;7.80;99.90;;;;;;4965549;28;88590;-73
2023/12/09 14:06:20;;;;;;;0.38;0.13;;;7.80;99.90;;;;;;4966763;28;88474;-72
2023/12/09 14:08:46;;;;;;;1.30;0.30;;;7.90;99.90;;;;;;4949070;28;87772;-73
2023/12/09 14:11:14;;;;;;;2.20;0.38;;;7.90;99.90;;;;;;4950658;28;90322;-73
2023/12/09 14:13:40;;;;;;;1.27;0.30;;;7.90;99.90;;;;;;4952485;28;92014;-72
2023/12/09 14:16:06;;;;;;;4.10;0.40;;;7.90;99.90;;;;;;4969613;28;88258;-73
2023/12/09 14:18:32;;;;;;;1.02;0.30;;;8.00;99.90;;;;;;4952184;28;95064;-72
2023/12/09 14:20:58;;;;;;;0.55;0.30;;;8.00;99.90;;;;;;4955036;28;90559;-72
2023/12/09 14:23:27;;;;;;;0.32;0.20;;;8.10;99.90;;;;;;4968413;28;88806;-73
2023/12/09 14:25:53;;;;;;;0.20;0.20;;;8.10;99.90;;;;;;4963956;28;88751;-73
2023/12/09 14:28:19;;;;;;;1.27;0.30;;;8.10;99.90;;;;;;4952238;28;87366;-73
2023/12/09 14:30:45;;;;;;;0.52;0.30;;;8.20;99.90;;;;;;4950793;28;89922;-73
2023/12/09 14:33:11;;;;;;;1.67;0.20;;;8.20;99.90;;;;;;4952489;28;91799;-73
2023/12/09 14:35:36;;;;;;;0.20;0.20;;;8.20;99.90;;;;;;4970233;28;87686;-73
2023/12/09 14:38:02;;;;;;;2.45;0.40;;;8.30;99.90;;;;;;4952109;28;87765;-72
2023/12/09 14:40:29;;;;;;;2.53;0.20;;;8.30;99.90;;;;;;4970302;28;87848;-73
2023/12/09 14:42:55;;;;;;;0.20;0.10;;;8.30;99.90;;;;;;4950515;28;92320;-75
2023/12/09 14:45:21;;;;;;;0.40;0.20;;;8.30;99.90;;;;;;4952643;28;88901;-73
2023/12/09 14:47:47;;;;;;;0.17;0.17;;;8.40;99.90;;;;;;4951719;28;87790;-72
2023/12/09 14:50:12;;;;;;;0.10;0.10;;;8.40;99.90;;;;;;4969889;28;87774;-72
2023/12/09 14:52:40;;;;;;;1.05;0.20;;;8.40;99.90;;;;;;4969353;28;88486;-73
2023/12/09 14:55:07;;;;;;;0.10;0.10;;;8.40;99.90;;;;;;4951018;28;91957;-73
2023/12/09 14:57:32;;;;;;;0.75;0.17;;;8.40;99.90;;;;;;4967950;28;87808;-73
2023/12/09 14:59:58;;;;;;;0.45;0.20;;;8.40;99.90;;;;;;4951371;28;90298;-72
2023/12/09 15:02:24;;;;;;;0.75;0.35;;;8.40;99.90;;;;;;4968390;28;91543;-72
2023/12/09 15:04:50;;;;;;;0.90;0.10;;;8.50;99.90;;;;;;4969914;28;88084;-73